sensor_id;sensor_type;location;lat;lon;timestamp;temperature;humidity
20489;DHT22;10403;54.092;12.122;2022-08-02T00:00:37;17.70;84.60
20489;DHT22;10403;54.092;12.122;2022-08-02T00:03:05;17.70;84.80
20489;DHT22;10403;54.092;12.122;2022-08-02T00:05:32;17.60;84.80
20489;DHT22;10403;54.092;12.122;2022-08-02T00:07:59;17.60;84.90
20489;DHT22;10403;54.092;12.122;2022-08-02T00:10:27;17.60;84.90
20489;DHT22;10403;54.092;12.122;2022-08-02T00:12:56;17.60;84.90
20489;DHT22;10403;54.092;12.122;2022-08-02T00:15:24;17.60;85.70
20489;DHT22;10403;54.092;12.122;2022-08-02T00:17:52;17.60;85.20
20489;DHT22;10403;54.092;12.122;2022-08-02T00:20:19;17.60;85.30
20489;DHT22;10403;54.092;12.122;2022-08-02T00:22:46;17.50;85.30
20489;DHT22;10403;54.092;12.122;2022-08-02T00:25:13;17.60;85.50
20489;DHT22;10403;54.092;12.122;2022-08-02T00:27:41;17.50;85.50
20489;DHT22;10403;54.092;12.122;2022-08-02T00:30:08;17.50;85.70
20489;DHT22;10403;54.092;12.122;2022-08-02T00:32:36;17.50;85.70
20489;DHT22;10403;54.092;12.122;2022-08-02T00:35:03;17.50;85.90
20489;DHT22;10403;54.092;12.122;2022-08-02T00:37:30;17.50;86.20
20489;DHT22;10403;54.092;12.122;2022-08-02T00:39:58;17.50;86.70
20489;DHT22;10403;54.092;12.122;2022-08-02T00:42:25;17.50;87.00
20489;DHT22;10403;54.092;12.122;2022-08-02T00:44:52;17.50;87.20
20489;DHT22;10403;54.092;12.122;2022-08-02T00:47:19;17.50;87.20
20489;DHT22;10403;54.092;12.122;2022-08-02T00:49:46;17.50;87.10
20489;DHT22;10403;54.092;12.122;2022-08-02T00:52:15;17.40;87.00
20489;DHT22;10403;54.092;12.122;2022-08-02T00:54:42;17.50;87.00
20489;DHT22;10403;54.092;12.122;2022-08-02T00:57:09;17.40;86.90
20489;DHT22;10403;54.092;12.122;2022-08-02T00:59:36;17.40;87.00
20489;DHT22;10403;54.092;12.122;2022-08-02T01:02:03;17.40;87.10
20489;DHT22;10403;54.092;12.122;2022-08-02T01:04:30;17.40;87.20
20489;DHT22;10403;54.092;12.122;2022-08-02T01:07:02;17.40;87.40
20489;DHT22;10403;54.092;12.122;2022-08-02T01:09:43;17.40;87.40
20489;DHT22;10403;54.092;12.122;2022-08-02T01:12:11;17.40;87.50
20489;DHT22;10403;54.092;12.122;2022-08-02T01:14:43;17.40;87.40
20489;DHT22;10403;54.092;12.122;2022-08-02T01:17:15;17.30;87.40
20489;DHT22;10403;54.092;12.122;2022-08-02T01:20:04;17.30;87.60
20489;DHT22;10403;54.092;12.122;2022-08-02T01:26:08;17.30;88.50
20489;DHT22;10403;54.092;12.122;2022-08-02T01:29:03;17.20;87.80
20489;DHT22;10403;54.092;12.122;2022-08-02T01:34:38;17.20;88.20
20489;DHT22;10403;54.092;12.122;2022-08-02T01:37:25;17.20;88.20
20489;DHT22;10403;54.092;12.122;2022-08-02T01:40:02;17.20;88.30
20489;DHT22;10403;54.092;12.122;2022-08-02T01:42:36;17.20;88.30
20489;DHT22;10403;54.092;12.122;2022-08-02T01:45:07;17.10;88.40
20489;DHT22;10403;54.092;12.122;2022-08-02T01:47:38;17.10;88.40
20489;DHT22;10403;54.092;12.122;2022-08-02T01:50:10;17.10;88.50
20489;DHT22;10403;54.092;12.122;2022-08-02T01:52:44;17.10;88.70
20489;DHT22;10403;54.092;12.122;2022-08-02T01:55:24;17.10;88.80
20489;DHT22;10403;54.092;12.122;2022-08-02T01:58:03;17.00;88.80
20489;DHT22;10403;54.092;12.122;2022-08-02T02:00:34;17.10;89.50
20489;DHT22;10403;54.092;12.122;2022-08-02T02:03:11;17.10;88.80
20489;DHT22;10403;54.092;12.122;2022-08-02T02:05:41;17.00;88.80
20489;DHT22;10403;54.092;12.122;2022-08-02T02:08:10;17.00;88.90
20489;DHT22;10403;54.092;12.122;2022-08-02T02:10:39;17.00;88.90
20489;DHT22;10403;54.092;12.122;2022-08-02T02:13:11;17.00;88.90
20489;DHT22;10403;54.092;12.122;2022-08-02T02:15:49;17.00;88.90
20489;DHT22;10403;54.092;12.122;2022-08-02T02:18:22;17.00;89.00
20489;DHT22;10403;54.092;12.122;2022-08-02T02:20:51;17.00;89.00
20489;DHT22;10403;54.092;12.122;2022-08-02T02:23:19;17.00;89.10
20489;DHT22;10403;54.092;12.122;2022-08-02T02:25:52;17.00;89.10
20489;DHT22;10403;54.092;12.122;2022-08-02T02:28:24;16.90;89.10
20489;DHT22;10403;54.092;12.122;2022-08-02T02:31:10;16.90;89.10
20489;DHT22;10403;54.092;12.122;2022-08-02T02:33:48;16.80;89.20
20489;DHT22;10403;54.092;12.122;2022-08-02T02:36:19;16.80;89.50
20489;DHT22;10403;54.092;12.122;2022-08-02T02:38:50;16.70;90.10
20489;DHT22;10403;54.092;12.122;2022-08-02T02:41:39;16.60;89.90
20489;DHT22;10403;54.092;12.122;2022-08-02T02:44:12;16.60;90.00
20489;DHT22;10403;54.092;12.122;2022-08-02T02:46:43;16.60;90.40
20489;DHT22;10403;54.092;12.122;2022-08-02T02:49:11;16.60;90.20
20489;DHT22;10403;54.092;12.122;2022-08-02T02:51:39;16.60;90.20
20489;DHT22;10403;54.092;12.122;2022-08-02T02:54:09;16.60;90.30
20489;DHT22;10403;54.092;12.122;2022-08-02T02:56:58;16.60;90.30
20489;DHT22;10403;54.092;12.122;2022-08-02T02:59:27;16.60;90.30
20489;DHT22;10403;54.092;12.122;2022-08-02T03:01:55;16.50;90.30
20489;DHT22;10403;54.092;12.122;2022-08-02T03:04:26;16.50;90.40
20489;DHT22;10403;54.092;12.122;2022-08-02T03:07:14;16.40;90.50
20489;DHT22;10403;54.092;12.122;2022-08-02T03:09:41;16.40;90.50
20489;DHT22;10403;54.092;12.122;2022-08-02T03:12:09;16.40;90.60
20489;DHT22;10403;54.092;12.122;2022-08-02T03:14:41;16.40;91.00
20489;DHT22;10403;54.092;12.122;2022-08-02T03:17:09;16.40;91.00
20489;DHT22;10403;54.092;12.122;2022-08-02T03:19:36;16.40;90.60
20489;DHT22;10403;54.092;12.122;2022-08-02T03:22:03;16.40;90.60
20489;DHT22;10403;54.092;12.122;2022-08-02T03:24:30;16.40;90.60
20489;DHT22;10403;54.092;12.122;2022-08-02T03:26:58;16.40;90.80
20489;DHT22;10403;54.092;12.122;2022-08-02T03:29:25;16.40;90.70
20489;DHT22;10403;54.092;12.122;2022-08-02T03:31:55;16.40;90.70
20489;DHT22;10403;54.092;12.122;2022-08-02T03:34:22;16.40;90.60
20489;DHT22;10403;54.092;12.122;2022-08-02T03:36:53;16.40;90.70
20489;DHT22;10403;54.092;12.122;2022-08-02T03:39:22;16.40;90.60
20489;DHT22;10403;54.092;12.122;2022-08-02T03:41:52;16.40;90.60
20489;DHT22;10403;54.092;12.122;2022-08-02T03:44:21;16.40;90.60
20489;DHT22;10403;54.092;12.122;2022-08-02T03:46:50;16.40;90.60
20489;DHT22;10403;54.092;12.122;2022-08-02T03:49:19;16.40;90.60
20489;DHT22;10403;54.092;12.122;2022-08-02T03:51:46;16.40;90.60
20489;DHT22;10403;54.092;12.122;2022-08-02T03:54:16;16.50;90.60
20489;DHT22;10403;54.092;12.122;2022-08-02T03:56:44;16.40;90.50
20489;DHT22;10403;54.092;12.122;2022-08-02T03:59:13;16.50;90.70
20489;DHT22;10403;54.092;12.122;2022-08-02T04:01:40;16.50;90.80
20489;DHT22;10403;54.092;12.122;2022-08-02T04:04:08;16.70;91.10
20489;DHT22;10403;54.092;12.122;2022-08-02T04:06:35;16.80;91.10
20489;DHT22;10403;54.092;12.122;2022-08-02T04:09:08;17.00;91.00
20489;DHT22;10403;54.092;12.122;2022-08-02T04:11:35;17.10;90.90
20489;DHT22;10403;54.092;12.122;2022-08-02T04:14:08;17.20;90.80
20489;DHT22;10403;54.092;12.122;2022-08-02T04:16:41;17.40;90.80
20489;DHT22;10403;54.092;12.122;2022-08-02T04:19:20;17.60;90.80
20489;DHT22;10403;54.092;12.122;2022-08-02T04:21:51;17.90;90.60
20489;DHT22;10403;54.092;12.122;2022-08-02T04:24:26;18.10;90.30
20489;DHT22;10403;54.092;12.122;2022-08-02T04:26:58;18.20;89.40
20489;DHT22;10403;54.092;12.122;2022-08-02T04:29:35;18.20;88.80
20489;DHT22;10403;54.092;12.122;2022-08-02T04:32:08;18.30;88.40
20489;DHT22;10403;54.092;12.122;2022-08-02T04:34:36;18.40;87.90
20489;DHT22;10403;54.092;12.122;2022-08-02T04:37:03;18.50;87.60
20489;DHT22;10403;54.092;12.122;2022-08-02T04:39:31;18.70;87.30
20489;DHT22;10403;54.092;12.122;2022-08-02T04:41:58;18.80;86.70
20489;DHT22;10403;54.092;12.122;2022-08-02T04:44:25;18.90;85.80
20489;DHT22;10403;54.092;12.122;2022-08-02T04:46:52;18.90;85.10
20489;DHT22;10403;54.092;12.122;2022-08-02T04:49:21;18.90;84.70
20489;DHT22;10403;54.092;12.122;2022-08-02T04:51:48;18.90;84.20
20489;DHT22;10403;54.092;12.122;2022-08-02T04:54:15;18.90;83.70
20489;DHT22;10403;54.092;12.122;2022-08-02T04:56:42;18.90;83.50
20489;DHT22;10403;54.092;12.122;2022-08-02T04:59:09;18.80;83.30
20489;DHT22;10403;54.092;12.122;2022-08-02T05:01:38;18.70;83.50
20489;DHT22;10403;54.092;12.122;2022-08-02T05:04:07;18.70;82.90
20489;DHT22;10403;54.092;12.122;2022-08-02T05:06:34;18.60;82.80
20489;DHT22;10403;54.092;12.122;2022-08-02T05:09:02;18.70;82.90
20489;DHT22;10403;54.092;12.122;2022-08-02T05:11:29;18.80;82.80
20489;DHT22;10403;54.092;12.122;2022-08-02T05:14:03;18.90;82.60
20489;DHT22;10403;54.092;12.122;2022-08-02T05:16:31;18.90;82.00
20489;DHT22;10403;54.092;12.122;2022-08-02T05:18:59;18.90;81.60
20489;DHT22;10403;54.092;12.122;2022-08-02T05:21:29;18.80;81.70
20489;DHT22;10403;54.092;12.122;2022-08-02T05:23:57;18.80;81.80
20489;DHT22;10403;54.092;12.122;2022-08-02T05:26:24;18.70;81.80
20489;DHT22;10403;54.092;12.122;2022-08-02T05:28:51;18.70;82.10
20489;DHT22;10403;54.092;12.122;2022-08-02T05:31:18;18.80;82.30
20489;DHT22;10403;54.092;12.122;2022-08-02T05:33:45;18.80;82.40
20489;DHT22;10403;54.092;12.122;2022-08-02T05:36:12;18.90;82.40
20489;DHT22;10403;54.092;12.122;2022-08-02T05:38:41;18.90;82.50
20489;DHT22;10403;54.092;12.122;2022-08-02T05:41:16;19.10;82.80
20489;DHT22;10403;54.092;12.122;2022-08-02T05:43:46;19.20;82.70
20489;DHT22;10403;54.092;12.122;2022-08-02T05:46:13;19.10;82.10
20489;DHT22;10403;54.092;12.122;2022-08-02T05:48:40;19.10;82.10
20489;DHT22;10403;54.092;12.122;2022-08-02T05:54:35;19.10;82.50
20489;DHT22;10403;54.092;12.122;2022-08-02T05:57:26;19.10;82.50
20489;DHT22;10403;54.092;12.122;2022-08-02T06:00:11;19.10;82.60
20489;DHT22;10403;54.092;12.122;2022-08-02T06:05:22;19.10;82.70
20489;DHT22;10403;54.092;12.122;2022-08-02T06:07:54;19.00;82.90
20489;DHT22;10403;54.092;12.122;2022-08-02T06:10:26;19.00;82.70
20489;DHT22;10403;54.092;12.122;2022-08-02T06:13:06;19.00;83.00
20489;DHT22;10403;54.092;12.122;2022-08-02T06:15:39;19.00;83.50
20489;DHT22;10403;54.092;12.122;2022-08-02T06:18:19;19.10;83.60
20489;DHT22;10403;54.092;12.122;2022-08-02T06:20:56;19.30;84.50
20489;DHT22;10403;54.092;12.122;2022-08-02T06:23:46;19.50;83.70
20489;DHT22;10403;54.092;12.122;2022-08-02T06:26:26;19.70;83.60
20489;DHT22;10403;54.092;12.122;2022-08-02T06:28:55;19.80;84.00
20489;DHT22;10403;54.092;12.122;2022-08-02T06:31:23;20.00;83.10
20489;DHT22;10403;54.092;12.122;2022-08-02T06:33:51;20.10;82.70
20489;DHT22;10403;54.092;12.122;2022-08-02T06:39:29;20.20;80.70
20489;DHT22;10403;54.092;12.122;2022-08-02T06:42:02;20.30;79.50
20489;DHT22;10403;54.092;12.122;2022-08-02T06:44:41;20.40;79.00
20489;DHT22;10403;54.092;12.122;2022-08-02T06:47:16;20.50;78.60
20489;DHT22;10403;54.092;12.122;2022-08-02T06:49:43;20.50;78.20
20489;DHT22;10403;54.092;12.122;2022-08-02T06:52:29;20.70;77.60
20489;DHT22;10403;54.092;12.122;2022-08-02T06:55:01;20.80;76.70
20489;DHT22;10403;54.092;12.122;2022-08-02T06:57:30;20.90;76.50
20489;DHT22;10403;54.092;12.122;2022-08-02T06:59:58;20.90;76.40
20489;DHT22;10403;54.092;12.122;2022-08-02T07:02:29;21.00;75.50
20489;DHT22;10403;54.092;12.122;2022-08-02T07:04:57;21.00;75.80
20489;DHT22;10403;54.092;12.122;2022-08-02T07:07:25;21.00;74.70
20489;DHT22;10403;54.092;12.122;2022-08-02T07:09:53;21.10;74.20
20489;DHT22;10403;54.092;12.122;2022-08-02T07:12:29;21.20;74.10
20489;DHT22;10403;54.092;12.122;2022-08-02T07:14:58;21.30;74.00
20489;DHT22;10403;54.092;12.122;2022-08-02T07:17:27;21.40;74.00
20489;DHT22;10403;54.092;12.122;2022-08-02T07:19:55;21.50;74.50
20489;DHT22;10403;54.092;12.122;2022-08-02T07:22:23;21.60;73.50
20489;DHT22;10403;54.092;12.122;2022-08-02T07:24:54;21.60;73.20
20489;DHT22;10403;54.092;12.122;2022-08-02T07:27:23;21.60;73.00
20489;DHT22;10403;54.092;12.122;2022-08-02T07:29:51;21.80;72.90
20489;DHT22;10403;54.092;12.122;2022-08-02T07:32:21;21.90;72.40
20489;DHT22;10403;54.092;12.122;2022-08-02T07:34:50;21.90;71.80
20489;DHT22;10403;54.092;12.122;2022-08-02T07:37:21;22.00;71.80
20489;DHT22;10403;54.092;12.122;2022-08-02T07:40:10;22.00;71.70
20489;DHT22;10403;54.092;12.122;2022-08-02T07:42:42;22.10;71.60
20489;DHT22;10403;54.092;12.122;2022-08-02T07:45:10;22.20;71.40
20489;DHT22;10403;54.092;12.122;2022-08-02T07:47:39;22.30;71.90
20489;DHT22;10403;54.092;12.122;2022-08-02T07:50:09;22.30;70.80
20489;DHT22;10403;54.092;12.122;2022-08-02T07:52:39;22.40;70.70
20489;DHT22;10403;54.092;12.122;2022-08-02T07:55:08;22.50;70.30
20489;DHT22;10403;54.092;12.122;2022-08-02T07:57:38;22.40;70.10
20489;DHT22;10403;54.092;12.122;2022-08-02T08:00:12;22.20;70.10
20489;DHT22;10403;54.092;12.122;2022-08-02T08:02:42;22.10;70.00
20489;DHT22;10403;54.092;12.122;2022-08-02T08:05:09;22.00;70.40
20489;DHT22;10403;54.092;12.122;2022-08-02T08:07:37;21.90;70.70
20489;DHT22;10403;54.092;12.122;2022-08-02T08:10:05;21.80;71.80
20489;DHT22;10403;54.092;12.122;2022-08-02T08:12:33;21.70;71.50
20489;DHT22;10403;54.092;12.122;2022-08-02T08:15:00;21.60;71.60
20489;DHT22;10403;54.092;12.122;2022-08-02T08:17:27;21.70;71.90
20489;DHT22;10403;54.092;12.122;2022-08-02T08:19:55;21.70;71.60
20489;DHT22;10403;54.092;12.122;2022-08-02T08:22:23;21.60;71.60
20489;DHT22;10403;54.092;12.122;2022-08-02T08:24:51;21.60;71.70
20489;DHT22;10403;54.092;12.122;2022-08-02T08:27:18;21.70;72.00
20489;DHT22;10403;54.092;12.122;2022-08-02T08:29:48;21.70;71.80
20489;DHT22;10403;54.092;12.122;2022-08-02T08:32:15;21.70;71.90
20489;DHT22;10403;54.092;12.122;2022-08-02T08:34:47;21.60;72.50
20489;DHT22;10403;54.092;12.122;2022-08-02T08:37:15;21.60;71.80
20489;DHT22;10403;54.092;12.122;2022-08-02T08:39:44;21.70;71.90
20489;DHT22;10403;54.092;12.122;2022-08-02T08:42:29;21.90;71.80
20489;DHT22;10403;54.092;12.122;2022-08-02T08:44:57;22.20;71.80
20489;DHT22;10403;54.092;12.122;2022-08-02T08:47:36;22.40;71.50
20489;DHT22;10403;54.092;12.122;2022-08-02T08:50:14;22.70;71.40
20489;DHT22;10403;54.092;12.122;2022-08-02T08:53:05;22.90;70.90
20489;DHT22;10403;54.092;12.122;2022-08-02T08:55:34;23.00;70.30
20489;DHT22;10403;54.092;12.122;2022-08-02T08:58:04;23.10;70.10
20489;DHT22;10403;54.092;12.122;2022-08-02T09:00:33;23.20;69.70
20489;DHT22;10403;54.092;12.122;2022-08-02T09:03:03;23.20;69.40
20489;DHT22;10403;54.092;12.122;2022-08-02T09:05:38;23.20;68.70
20489;DHT22;10403;54.092;12.122;2022-08-02T09:08:10;23.20;68.20
20489;DHT22;10403;54.092;12.122;2022-08-02T09:10:45;23.20;67.90
20489;DHT22;10403;54.092;12.122;2022-08-02T09:13:23;23.30;67.50
20489;DHT22;10403;54.092;12.122;2022-08-02T09:16:40;23.40;66.70
20489;DHT22;10403;54.092;12.122;2022-08-02T09:22:00;23.30;67.40
20489;DHT22;10403;54.092;12.122;2022-08-02T09:24:45;23.20;67.90
20489;DHT22;10403;54.092;12.122;2022-08-02T09:27:19;23.10;68.10
20489;DHT22;10403;54.092;12.122;2022-08-02T09:29:52;23.00;68.10
20489;DHT22;10403;54.092;12.122;2022-08-02T09:32:46;22.90;68.40
20489;DHT22;10403;54.092;12.122;2022-08-02T09:35:32;22.80;68.40
20489;DHT22;10403;54.092;12.122;2022-08-02T09:38:35;22.80;68.30
20489;DHT22;10403;54.092;12.122;2022-08-02T09:41:29;22.80;68.60
20489;DHT22;10403;54.092;12.122;2022-08-02T09:44:00;22.90;68.20
20489;DHT22;10403;54.092;12.122;2022-08-02T09:46:36;23.00;67.90
20489;DHT22;10403;54.092;12.122;2022-08-02T09:54:18;23.20;67.10
20489;DHT22;10403;54.092;12.122;2022-08-02T09:56:49;23.30;67.30
20489;DHT22;10403;54.092;12.122;2022-08-02T09:59:23;23.30;67.90
20489;DHT22;10403;54.092;12.122;2022-08-02T10:01:52;23.30;67.20
20489;DHT22;10403;54.092;12.122;2022-08-02T10:04:40;23.30;67.00
20489;DHT22;10403;54.092;12.122;2022-08-02T10:07:21;23.30;66.70
20489;DHT22;10403;54.092;12.122;2022-08-02T10:09:50;23.30;66.40
20489;DHT22;10403;54.092;12.122;2022-08-02T10:12:19;23.40;66.40
20489;DHT22;10403;54.092;12.122;2022-08-02T10:14:50;23.50;66.10
20489;DHT22;10403;54.092;12.122;2022-08-02T10:17:19;23.50;66.50
20489;DHT22;10403;54.092;12.122;2022-08-02T10:19:46;23.50;65.60
20489;DHT22;10403;54.092;12.122;2022-08-02T10:22:33;23.50;65.30
20489;DHT22;10403;54.092;12.122;2022-08-02T10:25:02;23.60;64.80
20489;DHT22;10403;54.092;12.122;2022-08-02T10:27:30;23.60;64.20
20489;DHT22;10403;54.092;12.122;2022-08-02T10:30:21;23.60;63.80
20489;DHT22;10403;54.092;12.122;2022-08-02T10:32:50;23.60;63.20
20489;DHT22;10403;54.092;12.122;2022-08-02T10:35:21;23.60;63.20
20489;DHT22;10403;54.092;12.122;2022-08-02T10:37:55;23.70;63.00
20489;DHT22;10403;54.092;12.122;2022-08-02T10:46:20;23.70;62.10
20489;DHT22;10403;54.092;12.122;2022-08-02T10:54:32;23.80;61.20
20489;DHT22;10403;54.092;12.122;2022-08-02T10:57:14;23.90;60.80
20489;DHT22;10403;54.092;12.122;2022-08-02T10:59:42;23.90;60.50
20489;DHT22;10403;54.092;12.122;2022-08-02T11:02:10;23.90;60.30
20489;DHT22;10403;54.092;12.122;2022-08-02T11:07:14;24.00;59.60
20489;DHT22;10403;54.092;12.122;2022-08-02T11:09:44;24.00;59.40
20489;DHT22;10403;54.092;12.122;2022-08-02T11:12:21;24.00;58.90
20489;DHT22;10403;54.092;12.122;2022-08-02T11:15:01;23.90;58.50
20489;DHT22;10403;54.092;12.122;2022-08-02T11:17:56;24.00;57.90
20489;DHT22;10403;54.092;12.122;2022-08-02T11:20:27;24.00;57.00
20489;DHT22;10403;54.092;12.122;2022-08-02T11:22:57;24.10;57.20
20489;DHT22;10403;54.092;12.122;2022-08-02T11:29:02;24.20;57.30
20489;DHT22;10403;54.092;12.122;2022-08-02T11:31:39;24.30;57.20
20489;DHT22;10403;54.092;12.122;2022-08-02T11:34:08;24.30;57.70
20489;DHT22;10403;54.092;12.122;2022-08-02T11:36:57;24.30;56.80
20489;DHT22;10403;54.092;12.122;2022-08-02T11:39:24;24.40;56.00
20489;DHT22;10403;54.092;12.122;2022-08-02T11:41:56;24.40;55.40
20489;DHT22;10403;54.092;12.122;2022-08-02T11:44:26;24.40;55.40
20489;DHT22;10403;54.092;12.122;2022-08-02T11:47:00;24.50;55.40
20489;DHT22;10403;54.092;12.122;2022-08-02T11:49:28;24.60;55.20
20489;DHT22;10403;54.092;12.122;2022-08-02T11:51:58;24.60;55.00
20489;DHT22;10403;54.092;12.122;2022-08-02T11:54:38;24.60;54.70
20489;DHT22;10403;54.092;12.122;2022-08-02T11:57:13;24.60;54.50
20489;DHT22;10403;54.092;12.122;2022-08-02T11:59:49;24.60;54.10
20489;DHT22;10403;54.092;12.122;2022-08-02T12:02:20;24.60;53.70
20489;DHT22;10403;54.092;12.122;2022-08-02T12:04:59;24.60;53.60
20489;DHT22;10403;54.092;12.122;2022-08-02T12:07:37;24.70;53.20
20489;DHT22;10403;54.092;12.122;2022-08-02T12:10:18;24.70;52.50
20489;DHT22;10403;54.092;12.122;2022-08-02T12:12:59;24.70;52.40
20489;DHT22;10403;54.092;12.122;2022-08-02T12:15:36;24.60;52.10
20489;DHT22;10403;54.092;12.122;2022-08-02T12:18:13;24.70;52.20
20489;DHT22;10403;54.092;12.122;2022-08-02T12:21:18;24.70;52.10
20489;DHT22;10403;54.092;12.122;2022-08-02T12:23:48;24.70;52.00
20489;DHT22;10403;54.092;12.122;2022-08-02T12:26:27;24.80;51.80
20489;DHT22;10403;54.092;12.122;2022-08-02T12:28:56;24.80;51.50
20489;DHT22;10403;54.092;12.122;2022-08-02T12:31:45;24.80;50.90
20489;DHT22;10403;54.092;12.122;2022-08-02T12:34:27;24.90;50.50
20489;DHT22;10403;54.092;12.122;2022-08-02T12:37:07;24.90;50.30
20489;DHT22;10403;54.092;12.122;2022-08-02T12:39:44;24.90;49.20
20489;DHT22;10403;54.092;12.122;2022-08-02T12:42:14;24.90;47.40
20489;DHT22;10403;54.092;12.122;2022-08-02T12:44:50;24.90;46.10
20489;DHT22;10403;54.092;12.122;2022-08-02T12:47:20;24.90;44.80
20489;DHT22;10403;54.092;12.122;2022-08-02T12:50:26;24.90;44.70
20489;DHT22;10403;54.092;12.122;2022-08-02T12:53:10;25.00;44.10
20489;DHT22;10403;54.092;12.122;2022-08-02T12:55:53;25.00;43.60
20489;DHT22;10403;54.092;12.122;2022-08-02T12:58:30;25.00;42.20
20489;DHT22;10403;54.092;12.122;2022-08-02T13:00:59;24.90;42.50
20489;DHT22;10403;54.092;12.122;2022-08-02T13:03:27;25.00;42.80
20489;DHT22;10403;54.092;12.122;2022-08-02T13:06:15;25.10;42.60
20489;DHT22;10403;54.092;12.122;2022-08-02T13:09:14;25.10;42.30
20489;DHT22;10403;54.092;12.122;2022-08-02T13:11:43;25.10;41.80
20489;DHT22;10403;54.092;12.122;2022-08-02T13:14:11;25.10;41.70
20489;DHT22;10403;54.092;12.122;2022-08-02T13:16:41;25.00;41.10
20489;DHT22;10403;54.092;12.122;2022-08-02T13:19:09;25.10;41.20
20489;DHT22;10403;54.092;12.122;2022-08-02T13:21:37;25.10;40.80
20489;DHT22;10403;54.092;12.122;2022-08-02T13:24:24;25.20;40.10
20489;DHT22;10403;54.092;12.122;2022-08-02T13:27:07;25.20;39.70
20489;DHT22;10403;54.092;12.122;2022-08-02T13:29:36;25.20;39.30
20489;DHT22;10403;54.092;12.122;2022-08-02T13:32:04;25.20;39.50
20489;DHT22;10403;54.092;12.122;2022-08-02T13:34:31;25.30;39.50
20489;DHT22;10403;54.092;12.122;2022-08-02T13:36:58;25.40;39.10
20489;DHT22;10403;54.092;12.122;2022-08-02T13:39:25;25.40;38.30
20489;DHT22;10403;54.092;12.122;2022-08-02T13:41:52;25.50;37.80
20489;DHT22;10403;54.092;12.122;2022-08-02T13:44:20;25.50;37.70
20489;DHT22;10403;54.092;12.122;2022-08-02T13:46:48;25.50;38.60
20489;DHT22;10403;54.092;12.122;2022-08-02T13:49:16;25.40;37.90
20489;DHT22;10403;54.092;12.122;2022-08-02T13:51:46;25.40;37.80
20489;DHT22;10403;54.092;12.122;2022-08-02T13:54:14;25.40;37.80
20489;DHT22;10403;54.092;12.122;2022-08-02T13:56:42;25.50;37.70
20489;DHT22;10403;54.092;12.122;2022-08-02T13:59:09;25.50;37.20
20489;DHT22;10403;54.092;12.122;2022-08-02T14:01:57;25.50;37.50
20489;DHT22;10403;54.092;12.122;2022-08-02T14:04:25;25.50;38.10
20489;DHT22;10403;54.092;12.122;2022-08-02T14:06:53;25.40;38.70
20489;DHT22;10403;54.092;12.122;2022-08-02T14:09:24;25.40;39.20
20489;DHT22;10403;54.092;12.122;2022-08-02T14:11:51;25.40;39.60
20489;DHT22;10403;54.092;12.122;2022-08-02T14:14:19;25.40;40.00
20489;DHT22;10403;54.092;12.122;2022-08-02T14:16:46;25.50;40.20
20489;DHT22;10403;54.092;12.122;2022-08-02T14:19:13;25.50;40.20
20489;DHT22;10403;54.092;12.122;2022-08-02T14:21:43;25.50;40.30
20489;DHT22;10403;54.092;12.122;2022-08-02T14:24:18;25.50;40.50
20489;DHT22;10403;54.092;12.122;2022-08-02T14:26:47;25.50;40.90
20489;DHT22;10403;54.092;12.122;2022-08-02T14:29:15;25.50;41.20
20489;DHT22;10403;54.092;12.122;2022-08-02T14:31:43;25.50;41.30
20489;DHT22;10403;54.092;12.122;2022-08-02T14:34:12;25.50;41.40
20489;DHT22;10403;54.092;12.122;2022-08-02T14:36:39;25.50;41.50
20489;DHT22;10403;54.092;12.122;2022-08-02T14:39:07;25.50;41.50
20489;DHT22;10403;54.092;12.122;2022-08-02T14:41:34;25.40;41.70
20489;DHT22;10403;54.092;12.122;2022-08-02T14:44:23;25.40;42.10
20489;DHT22;10403;54.092;12.122;2022-08-02T14:46:50;25.40;42.50
20489;DHT22;10403;54.092;12.122;2022-08-02T14:49:19;25.50;42.80
20489;DHT22;10403;54.092;12.122;2022-08-02T14:51:53;25.50;42.90
20489;DHT22;10403;54.092;12.122;2022-08-02T14:54:21;25.60;42.90
20489;DHT22;10403;54.092;12.122;2022-08-02T14:56:55;25.70;43.00
20489;DHT22;10403;54.092;12.122;2022-08-02T14:59:27;25.70;43.10
20489;DHT22;10403;54.092;12.122;2022-08-02T15:01:55;25.80;43.30
20489;DHT22;10403;54.092;12.122;2022-08-02T15:04:22;25.80;43.40
20489;DHT22;10403;54.092;12.122;2022-08-02T15:06:49;25.80;43.40
20489;DHT22;10403;54.092;12.122;2022-08-02T15:09:17;25.80;43.40
20489;DHT22;10403;54.092;12.122;2022-08-02T15:11:44;25.80;43.30
20489;DHT22;10403;54.092;12.122;2022-08-02T15:14:18;25.80;43.40
20489;DHT22;10403;54.092;12.122;2022-08-02T15:16:52;25.70;43.20
20489;DHT22;10403;54.092;12.122;2022-08-02T15:19:25;25.70;43.30
20489;DHT22;10403;54.092;12.122;2022-08-02T15:22:13;25.60;43.40
20489;DHT22;10403;54.092;12.122;2022-08-02T15:24:45;25.60;43.80
20489;DHT22;10403;54.092;12.122;2022-08-02T15:27:12;25.70;44.20
20489;DHT22;10403;54.092;12.122;2022-08-02T15:29:41;25.70;44.20
20489;DHT22;10403;54.092;12.122;2022-08-02T15:32:09;25.70;44.40
20489;DHT22;10403;54.092;12.122;2022-08-02T15:34:38;25.70;44.50
20489;DHT22;10403;54.092;12.122;2022-08-02T15:37:06;25.70;44.70
20489;DHT22;10403;54.092;12.122;2022-08-02T15:39:33;25.90;45.10
20489;DHT22;10403;54.092;12.122;2022-08-02T15:42:00;25.80;45.40
20489;DHT22;10403;54.092;12.122;2022-08-02T15:44:27;25.80;45.60
20489;DHT22;10403;54.092;12.122;2022-08-02T15:46:55;25.80;45.70
20489;DHT22;10403;54.092;12.122;2022-08-02T15:49:23;25.80;45.70
20489;DHT22;10403;54.092;12.122;2022-08-02T15:51:52;25.80;45.70
20489;DHT22;10403;54.092;12.122;2022-08-02T15:54:20;25.70;45.80
20489;DHT22;10403;54.092;12.122;2022-08-02T15:56:48;25.70;45.90
20489;DHT22;10403;54.092;12.122;2022-08-02T15:59:16;25.70;46.00
20489;DHT22;10403;54.092;12.122;2022-08-02T16:01:43;25.60;46.10
20489;DHT22;10403;54.092;12.122;2022-08-02T16:04:14;25.60;46.60
20489;DHT22;10403;54.092;12.122;2022-08-02T16:06:42;25.60;45.80
20489;DHT22;10403;54.092;12.122;2022-08-02T16:09:10;25.50;46.50
20489;DHT22;10403;54.092;12.122;2022-08-02T16:11:37;25.50;45.90
20489;DHT22;10403;54.092;12.122;2022-08-02T16:14:05;25.50;45.80
20489;DHT22;10403;54.092;12.122;2022-08-02T16:16:34;25.50;45.80
20489;DHT22;10403;54.092;12.122;2022-08-02T16:19:03;25.50;45.90
20489;DHT22;10403;54.092;12.122;2022-08-02T16:21:53;25.40;45.90
20489;DHT22;10403;54.092;12.122;2022-08-02T16:24:21;25.40;46.10
20489;DHT22;10403;54.092;12.122;2022-08-02T16:26:49;25.40;46.80